»·PEaware :: N3268C KWHP-KCNO

N3268C :: KWHP-KCNO

FLIGHT INFORMATION

Flight Status: Arrived
Operator: Privately registered:
United States
More flights under this callsign
Pilot: Jonathan B. (16142)
Aircraft: CESSNA 182 SKYLANE
(C182)
More flights by this aircraft type
Origin: KWHP Whiteman
United States
Destination: KCNO Chino
United States
More flights between these airports :: More routes between these airports
Route: +VNY V186 PDZ
File this flight plan on PilotEdge
Remarks:
Altitude:
(Current/Filed)
5,000ft
Speed:
(Current/Filed)
0kts
Departed: 16-Dec-17 10:03 PM
Arrived: 16-Dec-17 10:48 PM
Distance/Time
Traveled:
42nm/0:44
Distance/Time
To Go:
Arrived

Flight Plot

Page will automatically refresh every two minutes.

Flight plan parsing failed; only flown route is shown


Map Options




Map Legend


Flown Route
Filed Route
Departure Airport
Arrival Airport
Navaid (VOR, NDB)
Fix

Horizontal Profiles

Position Reports

Time Latitude Longitude Heading Altitude Ground
Speed
16-Dec-17 21:56 34.263672 -118.417571 265 1006ft 0kts
16-Dec-17 21:57 34.263672 -118.417575 265 1006ft 0kts
16-Dec-17 21:58 34.263672 -118.417578 265 1006ft 0kts
16-Dec-17 21:59 34.263672 -118.417582 265 1006ft 0kts
16-Dec-17 22:00 34.263671 -118.417585 265 1006ft 0kts
16-Dec-17 22:01 34.262815 -118.416570 137 1006ft 11kts
16-Dec-17 22:02 34.260130 -118.413687 138 1006ft 14kts
16-Dec-17 22:03 34.257014 -118.410400 138 1006ft 15kts
16-Dec-17 22:04 34.255580 -118.408918 154 1006ft 0kts
16-Dec-17 22:05 34.255469 -118.408892 213 1006ft 0kts
16-Dec-17 22:06 34.255467 -118.408894 213 1006ft 0kts
16-Dec-17 22:07 34.255466 -118.408895 213 1006ft 0kts
16-Dec-17 22:08 34.255462 -118.408898 213 1006ft 0kts
16-Dec-17 22:09 34.256272 -118.410255 322 1006ft 50kts
16-Dec-17 22:10 34.264555 -118.431038 233 1804ft 87kts
16-Dec-17 22:11 34.243647 -118.453817 268 2181ft 98kts
16-Dec-17 22:12 34.241251 -118.487367 272 2690ft 94kts
16-Dec-17 22:13 34.233411 -118.516249 196 3084ft 108kts
16-Dec-17 22:14 34.213384 -118.496217 104 3563ft 94kts
16-Dec-17 22:15 34.205515 -118.467300 90 4226ft 82kts
16-Dec-17 22:16 34.200910 -118.434641 103 4408ft 115kts
16-Dec-17 22:17 34.187623 -118.396379 117 4296ft 125kts
16-Dec-17 22:18 34.176985 -118.364457 108 4366ft 122kts
16-Dec-17 22:19 34.157716 -118.321355 105 4514ft 109kts
16-Dec-17 22:20 34.150433 -118.282160 105 4273ft 121kts
16-Dec-17 22:21 34.140950 -118.252512 99 4392ft 111kts
16-Dec-17 22:22 34.134180 -118.214653 100 4333ft 116kts
16-Dec-17 22:23 34.123450 -118.174776 108 5031ft 118kts
16-Dec-17 22:24 34.111222 -118.143580 116 5219ft 127kts
16-Dec-17 22:25 34.100275 -118.104136 103 5021ft 122kts
16-Dec-17 22:26 34.087442 -118.066143 121 4836ft 126kts
16-Dec-17 22:27 34.067655 -118.037419 122 5022ft 117kts
16-Dec-17 22:28 34.049059 -118.004538 115 5001ft 115kts
16-Dec-17 22:29 34.038251 -117.968252 104 5042ft 111kts
16-Dec-17 22:30 34.025434 -117.929133 107 4373ft 133kts
16-Dec-17 22:31 34.011849 -117.887037 106 3442ft 139kts
16-Dec-17 22:32 34.002462 -117.845077 99 3042ft 121kts
16-Dec-17 22:33 33.995534 -117.805924 101 2970ft 122kts
16-Dec-17 22:34 33.984892 -117.768507 104 3009ft 117kts
16-Dec-17 22:35 33.975820 -117.732845 97 3023ft 100kts
16-Dec-17 22:36 33.966752 -117.699461 112 2990ft 101kts
16-Dec-17 22:37 33.956629 -117.667413 109 3018ft 101kts
16-Dec-17 22:38 33.946037 -117.634468 103 2979ft 102kts
16-Dec-17 22:39 33.938505 -117.601220 101 2983ft 102kts
16-Dec-17 22:40 33.929450 -117.568182 104 2954ft 105kts
16-Dec-17 22:41 33.919927 -117.535679 101 3024ft 100kts
16-Dec-17 22:42 33.918435 -117.503005 78 3054ft 99kts
16-Dec-17 22:43 33.920381 -117.468509 82 2988ft 101kts
16-Dec-17 22:44 33.923346 -117.436069 84 3044ft 102kts
16-Dec-17 22:45 33.934257 -117.411651 355 3053ft 91kts
16-Dec-17 22:46 33.961637 -117.414969 355 2955ft 96kts
16-Dec-17 22:47 33.976764 -117.437468 284 2969ft 107kts
16-Dec-17 22:48 33.974689 -117.473036 268 2987ft 95kts
16-Dec-17 22:49 33.976869 -117.504405 281 2682ft 104kts
16-Dec-17 22:50 33.976546 -117.540254 273 1983ft 103kts
16-Dec-17 22:51 33.976093 -117.573840 270 1619ft 88kts
16-Dec-17 22:52 33.975730 -117.604117 273 1118ft 84kts
16-Dec-17 22:53 33.975829 -117.634537 275 667ft 79kts
16-Dec-17 22:54 33.975861 -117.646293 312 655ft 9kts
16-Dec-17 22:55 33.976854 -117.645484 61 655ft 6kts
16-Dec-17 22:56 33.979579 -117.645272 1 655ft 13kts
16-Dec-17 22:57 33.980858 -117.645544 359 655ft 1kts
16-Dec-17 22:58 33.980865 -117.645543 0 655ft 0kts

Navigation Log

Ident Type
Flight plan parsing failed, navigation log unavailable